createdAt,value
2023-02-18T00:00:02.291Z,58.95
2023-02-18T00:01:02.378Z,60.72
2023-02-18T00:02:02.385Z,63.03
2023-02-18T00:03:02.581Z,71.68
2023-02-18T00:04:02.530Z,70.24
2023-02-18T00:05:02.551Z,68.71
2023-02-18T00:06:02.579Z,75.82
2023-02-18T00:07:02.590Z,61.79
2023-02-18T00:08:02.623Z,66.08
2023-02-18T00:09:02.636Z,80.05
2023-02-18T00:10:02.637Z,68.84
2023-02-18T00:11:02.669Z,54.90
2023-02-18T00:12:02.701Z,53.74
2023-02-18T00:13:02.756Z,50.42
2023-02-18T00:14:02.783Z,50.55
2023-02-18T00:15:02.850Z,50.61
2023-02-18T00:16:02.937Z,37.12
2023-02-18T00:17:02.972Z,35.76
2023-02-18T00:18:03.030Z,38.23
2023-02-18T00:19:03.074Z,33.26
2023-02-18T00:20:03.115Z,47.75
2023-02-18T00:21:03.194Z,57.18
2023-02-18T00:22:03.235Z,71.58
2023-02-18T00:23:03.291Z,77.94
2023-02-18T00:24:03.349Z,74.52
2023-02-18T00:25:03.405Z,64.57
2023-02-18T00:26:03.476Z,58.55
2023-02-18T00:27:03.533Z,59.85
2023-02-18T00:28:03.620Z,60.02
2023-02-18T00:29:03.707Z,64.13
2023-02-18T00:30:03.834Z,52.63
2023-02-18T00:31:03.960Z,42.24
2023-02-18T00:32:04.015Z,37.07
2023-02-18T00:33:04.070Z,36.68
2023-02-18T00:34:04.149Z,38.27
2023-02-18T00:35:04.257Z,37.06
2023-02-18T00:36:04.348Z,42.87
2023-02-18T00:37:04.421Z,49.78
2023-02-18T00:38:04.491Z,47.26
2023-02-18T00:39:04.545Z,45.32
2023-02-18T00:40:04.623Z,46.52
2023-02-18T00:41:04.676Z,48.49
2023-02-18T00:42:04.725Z,63.73
2023-02-18T00:43:04.778Z,80.63
2023-02-18T00:44:04.910Z,93.49
2023-02-18T00:45:04.876Z,98.75
2023-02-18T00:46:05.064Z,112.83
2023-02-18T00:47:04.937Z,104.42
2023-02-18T00:48:04.975Z,93.73
2023-02-18T00:49:04.984Z,82.57
2023-02-18T00:50:05.007Z,69.83
2023-02-18T00:51:05.056Z,56.40
2023-02-18T00:52:05.143Z,51.35
2023-02-18T00:53:05.242Z,44.39
2023-02-18T00:54:05.332Z,45.34
2023-02-18T00:55:05.417Z,47.80
2023-02-18T00:56:05.708Z,49.56
2023-02-18T00:57:05.603Z,46.19
2023-02-18T00:58:05.690Z,46.83
2023-02-18T00:59:05.787Z,45.55
2023-02-18T01:00:05.891Z,45.04
2023-02-18T01:01:07.504Z,44.76
2023-02-18T01:02:06.071Z,48.34
2023-02-18T01:03:06.147Z,45.42
2023-02-18T01:04:06.226Z,44.56
2023-02-18T01:05:06.312Z,45.97
2023-02-18T01:06:06.626Z,49.20
2023-02-18T01:07:06.476Z,46.54
2023-02-18T01:08:06.558Z,46.96
2023-02-18T01:09:06.623Z,48.84
2023-02-18T01:10:06.661Z,62.82
2023-02-18T01:11:06.754Z,56.72
2023-02-18T01:12:06.861Z,61.60
2023-02-18T01:13:06.946Z,60.59
2023-02-18T01:14:07.021Z,71.86
2023-02-18T01:15:07.101Z,80.53
2023-02-18T01:16:07.581Z,94.11
2023-02-18T01:17:07.305Z,102.46
2023-02-18T01:18:07.368Z,81.90
2023-02-18T01:19:07.451Z,86.78
2023-02-18T01:20:07.523Z,129.11
2023-02-18T01:21:07.614Z,144.89
2023-02-18T01:22:07.726Z,137.09
2023-02-18T01:23:07.777Z,110.35
2023-02-18T01:24:07.855Z,109.69
2023-02-18T01:25:07.910Z,101.45
2023-02-18T01:26:08.293Z,84.69
2023-02-18T01:27:08.070Z,88.61
2023-02-18T01:28:08.168Z,82.39
2023-02-18T01:29:08.203Z,75.23
2023-02-18T01:30:08.454Z,77.03
2023-02-18T01:31:08.564Z,84.84
2023-02-18T01:32:08.768Z,122.36
2023-02-18T01:33:08.888Z,184.70
2023-02-18T01:34:09.193Z,232.37
2023-02-18T01:35:09.309Z,270.48
2023-02-18T01:36:09.773Z,229.05
2023-02-18T01:37:09.374Z,181.24
2023-02-18T01:38:09.425Z,155.85
2023-02-18T01:39:09.436Z,270.15
2023-02-18T01:40:09.469Z,461.47
2023-02-18T01:41:09.500Z,402.10
2023-02-18T01:42:09.519Z,293.45
2023-02-18T01:43:09.551Z,212.05
2023-02-18T01:44:09.568Z,199.97
2023-02-18T01:45:09.586Z,159.25
2023-02-18T01:46:09.940Z,122.65
2023-02-18T01:47:09.656Z,106.02
2023-02-18T01:48:09.692Z,101.17
2023-02-18T01:49:09.694Z,104.07
2023-02-18T01:50:09.709Z,120.80
2023-02-18T01:51:09.723Z,123.08
2023-02-18T01:52:09.761Z,95.54
2023-02-18T01:53:09.816Z,83.03
2023-02-18T01:54:09.871Z,72.11
2023-02-18T01:55:09.911Z,66.33
2023-02-18T01:56:10.294Z,63.17
2023-02-18T01:57:09.987Z,62.46
2023-02-18T01:58:10.033Z,75.56
2023-02-18T01:59:10.066Z,136.22
2023-02-18T02:00:10.108Z,185.27
2023-02-18T02:01:10.168Z,272.34
2023-02-18T02:02:10.221Z,366.07
2023-02-18T02:03:10.199Z,343.19
2023-02-18T02:04:10.224Z,233.82
2023-02-18T02:05:10.264Z,192.31
2023-02-18T02:06:10.290Z,173.08
2023-02-18T02:07:10.320Z,169.00
2023-02-18T02:08:10.341Z,156.46
2023-02-18T02:09:10.369Z,143.00
2023-02-18T02:10:10.398Z,139.98
2023-02-18T02:11:10.414Z,127.99
2023-02-18T02:12:10.440Z,123.80
2023-02-18T02:13:10.469Z,117.33
2023-02-18T02:14:10.555Z,111.46
2023-02-18T02:15:10.536Z,119.46
2023-02-18T02:16:10.867Z,133.13
2023-02-18T02:17:10.609Z,166.27
2023-02-18T02:18:10.625Z,203.05
2023-02-18T02:19:10.667Z,258.08
2023-02-18T02:20:10.744Z,196.90
2023-02-18T02:21:10.818Z,194.75
2023-02-18T02:22:10.930Z,160.32
2023-02-18T02:23:11.042Z,124.94
2023-02-18T02:24:11.150Z,109.59
2023-02-18T02:25:11.241Z,143.04
2023-02-18T02:26:11.343Z,229.68
2023-02-18T02:27:11.481Z,372.28
2023-02-18T02:28:11.582Z,341.67
2023-02-18T02:29:11.687Z,276.43
2023-02-18T02:30:11.782Z,230.16
2023-02-18T02:31:11.928Z,152.89
2023-02-18T02:32:11.931Z,126.54
2023-02-18T02:33:12.001Z,110.59
2023-02-18T02:34:12.112Z,92.70
2023-02-18T02:35:12.185Z,86.10
2023-02-18T02:36:12.253Z,86.96
2023-02-18T02:37:12.312Z,76.15
2023-02-18T02:38:12.367Z,72.14
2023-02-18T02:39:12.461Z,56.83
2023-02-18T02:40:12.560Z,49.87
2023-02-18T02:41:12.671Z,41.15
2023-02-18T02:42:12.752Z,44.60
2023-02-18T02:43:12.821Z,54.89
2023-02-18T02:44:12.886Z,68.62
2023-02-18T03:12:15.057Z,136.07
2023-02-18T03:45:17.875Z,41.74
2023-02-18T03:46:18.021Z,41.61
2023-02-18T03:47:18.135Z,36.87
2023-02-18T03:48:18.195Z,35.87
2023-02-18T03:49:18.259Z,27.97
2023-02-18T03:50:18.343Z,25.43
2023-02-18T03:51:18.409Z,23.82
2023-02-18T03:52:18.495Z,25.45
2023-02-18T03:53:18.605Z,22.62
2023-02-18T03:54:18.636Z,21.45
2023-02-18T03:55:18.695Z,16.70
2023-02-18T03:56:18.814Z,12.62
2023-02-18T03:57:18.918Z,10.62
2023-02-18T03:58:19.031Z,10.50
2023-02-18T03:59:19.122Z,12.12
2023-02-18T04:00:19.231Z,13.28
2023-02-18T04:01:19.366Z,15.11
2023-02-18T04:02:19.410Z,16.17
2023-02-18T04:03:19.521Z,13.72
2023-02-18T04:04:19.587Z,14.99
2023-02-18T04:05:19.613Z,16.84
2023-02-18T04:06:19.711Z,16.91
2023-02-18T05:20:27.913Z,23.74
2023-02-18T05:21:28.025Z,25.85
2023-02-18T05:22:28.119Z,20.20
2023-02-18T05:23:28.203Z,23.25
2023-02-18T05:24:28.294Z,17.95
2023-02-18T05:25:28.365Z,12.75
2023-02-18T05:26:28.428Z,14.89
2023-02-18T05:27:28.506Z,14.02
2023-02-18T05:28:28.620Z,14.09
2023-02-18T05:29:28.723Z,13.74
2023-02-18T05:30:28.859Z,13.81
2023-02-18T05:31:28.949Z,10.18
2023-02-18T05:32:28.983Z,10.26
2023-02-18T05:33:29.087Z,37.97
2023-02-18T05:34:29.174Z,48.83
2023-02-18T05:35:29.266Z,21.05
2023-02-18T05:36:29.393Z,11.51
2023-02-18T05:37:29.525Z,9.55
2023-02-18T05:38:29.645Z,32.49
2023-02-18T05:39:29.702Z,52.41
2023-02-18T05:40:29.831Z,41.67
2023-02-18T05:41:29.932Z,30.22
2023-02-18T05:42:30.034Z,20.54
2023-02-18T05:43:30.132Z,56.13
2023-02-18T05:44:30.242Z,38.03
2023-02-18T05:45:30.356Z,25.19
2023-02-18T05:46:30.542Z,22.78
2023-02-18T05:47:30.618Z,25.37
2023-02-18T05:48:30.689Z,62.56
2023-02-18T05:49:30.812Z,77.43
2023-02-18T05:50:30.947Z,49.03
2023-02-18T05:51:31.086Z,36.08
2023-02-18T05:52:31.169Z,21.59
2023-02-18T05:53:31.279Z,19.06
2023-02-18T05:54:31.338Z,14.90
2023-02-18T05:55:31.443Z,11.27
2023-02-18T05:56:31.530Z,12.18
2023-02-18T05:57:31.643Z,12.85
2023-02-18T05:59:31.889Z,13.79
2023-02-18T06:00:31.990Z,14.11
2023-02-18T06:25:34.701Z,8.93
2023-02-18T06:55:37.844Z,18.82
2023-02-18T06:56:37.947Z,15.28
2023-02-18T06:57:38.071Z,29.27
2023-02-18T06:58:38.188Z,38.48
2023-02-18T06:59:38.292Z,167.47
2023-02-18T07:00:38.474Z,333.91
2023-02-18T07:01:38.616Z,278.28
2023-02-18T07:02:38.708Z,183.40
2023-02-18T07:03:38.864Z,90.37
2023-02-18T07:04:38.882Z,55.71
2023-02-18T07:05:39.021Z,33.96
2023-02-18T07:06:39.143Z,25.33
2023-02-18T07:07:39.253Z,21.62
2023-02-18T07:08:39.365Z,23.31
2023-02-18T07:09:39.479Z,27.40
2023-02-18T07:10:39.592Z,22.89
2023-02-18T07:11:39.719Z,16.37
2023-02-18T07:12:39.848Z,13.30
2023-02-18T07:13:39.985Z,10.32
2023-02-18T07:14:40.126Z,9.85
2023-02-18T07:15:40.226Z,11.13
2023-02-18T07:16:40.363Z,9.51
2023-02-18T07:17:40.416Z,8.13
2023-02-18T07:18:40.530Z,6.30
2023-02-18T07:19:40.621Z,12.57
2023-02-18T07:20:40.723Z,18.29
2023-02-18T07:21:40.810Z,17.10
2023-02-18T07:22:40.899Z,7.99
2023-02-18T07:23:41.003Z,5.92
2023-02-18T07:24:41.110Z,8.26
2023-02-18T07:25:41.233Z,56.48
2023-02-18T07:26:41.348Z,78.78
2023-02-18T07:27:41.461Z,59.20
2023-02-18T08:32:47.842Z,17.32
2023-02-18T08:33:47.932Z,51.60
2023-02-18T08:34:48.048Z,77.71
2023-02-18T08:35:48.144Z,68.43
2023-02-18T08:36:48.231Z,58.24
2023-02-18T08:37:53.870Z,25.64
2023-02-18T08:38:49.349Z,24.18
2023-02-18T08:39:48.396Z,26.57
2023-02-18T08:40:48.452Z,26.38
2023-02-18T08:41:48.484Z,15.84
2023-02-18T08:42:48.554Z,8.33
2023-02-18T08:43:48.562Z,4.57
2023-02-18T08:44:48.616Z,4.16
2023-02-18T08:45:48.685Z,4.66
2023-02-18T08:46:48.741Z,5.88
2023-02-18T08:48:18.330Z,3.96
2023-02-18T08:49:48.809Z,4.77
2023-02-18T08:50:48.826Z,4.20
2023-02-18T08:51:48.854Z,6.36
2023-02-18T08:52:48.882Z,10.21
2023-02-18T08:53:48.934Z,8.10
2023-02-18T08:54:48.960Z,5.58
2023-02-18T08:55:49.004Z,3.23
2023-02-18T08:56:49.062Z,2.34
2023-02-18T08:57:49.106Z,1.89
2023-02-18T08:58:49.139Z,1.86
2023-02-18T08:59:49.177Z,2.25
2023-02-18T09:00:49.203Z,3.75
2023-02-18T09:01:49.340Z,8.49
2023-02-18T09:02:49.257Z,7.89
2023-02-18T09:03:49.376Z,8.01
2023-02-18T09:04:49.436Z,8.93
2023-02-18T09:57:57.961Z,0.46
2023-02-18T09:58:58.078Z,0.56
2023-02-18T09:59:58.220Z,0.58
2023-02-18T10:00:58.480Z,0.57
2023-02-18T10:01:58.953Z,0.50
2023-02-18T10:02:58.672Z,0.52
2023-02-18T10:03:58.690Z,0.50
2023-02-18T10:04:58.753Z,0.65
2023-02-18T10:05:58.813Z,0.73
2023-02-18T10:06:58.831Z,0.91
2023-02-18T10:07:58.886Z,0.82
2023-02-18T10:08:58.931Z,0.70
2023-02-18T10:09:58.962Z,0.92
2023-02-18T10:10:59.027Z,0.95
2023-02-18T10:11:59.081Z,1.09
2023-02-18T10:12:59.223Z,1.20
2023-02-18T10:13:59.182Z,0.95
2023-02-18T10:14:59.240Z,0.75
2023-02-18T10:15:59.331Z,0.81
2023-02-18T10:16:59.317Z,0.85
2023-02-18T10:17:59.431Z,0.60
2023-02-18T10:18:59.696Z,0.63
2023-02-18T10:20:00.223Z,0.66
2023-02-18T10:20:59.852Z,0.61
2023-02-18T10:21:59.894Z,0.54
2023-02-18T10:22:59.921Z,0.51
2023-02-18T10:23:59.948Z,0.56
2023-02-18T10:24:59.949Z,0.58
2023-02-18T10:25:59.988Z,0.63
2023-02-18T10:27:00.014Z,0.86
2023-02-18T10:28:00.078Z,0.81
2023-02-18T10:29:00.106Z,0.75
2023-02-18T10:30:00.183Z,0.71
2023-02-18T10:31:00.170Z,0.65
2023-02-18T10:32:00.309Z,0.54
2023-02-18T10:33:00.142Z,0.59
2023-02-18T10:34:00.145Z,0.59
2023-02-18T10:35:00.481Z,0.78
2023-02-18T10:36:00.191Z,0.81
2023-02-18T10:37:00.254Z,0.76
2023-02-18T10:38:00.285Z,0.71
2023-02-18T10:39:00.285Z,0.59
2023-02-18T10:40:00.276Z,0.52
2023-02-18T10:41:00.328Z,0.54
2023-02-18T10:42:00.252Z,0.69
2023-02-18T10:43:00.246Z,0.72
2023-02-18T10:44:00.260Z,0.70
2023-02-18T10:45:00.260Z,0.54
2023-02-18T10:46:00.325Z,0.56
2023-02-18T10:47:00.549Z,0.64
2023-02-18T10:48:00.768Z,0.50
2023-02-18T11:26:07.808Z,0.74
2023-02-18T11:27:08.016Z,0.75
2023-02-18T12:24:17.863Z,0.88
2023-02-18T12:25:18.032Z,0.64
2023-02-18T12:26:18.187Z,0.62
2023-02-18T12:27:18.334Z,0.64
2023-02-18T12:28:18.464Z,0.67
2023-02-18T12:29:18.613Z,0.62
2023-02-18T12:30:18.677Z,0.55
2023-02-18T12:31:19.036Z,0.64
2023-02-18T12:32:19.023Z,0.70
2023-02-18T12:33:19.108Z,0.96
2023-02-18T12:34:19.225Z,0.91
2023-02-18T12:35:19.418Z,0.60
2023-02-18T12:36:19.607Z,0.64
2023-02-18T12:37:19.674Z,0.65
2023-02-18T12:38:19.884Z,0.82
2023-02-18T12:39:20.047Z,0.70
2023-02-18T12:40:20.106Z,0.54
2023-02-18T12:41:20.314Z,0.53
2023-02-18T12:42:20.354Z,0.83
2023-02-18T12:43:20.559Z,0.42
2023-02-18T12:44:20.599Z,0.34
2023-02-18T12:45:20.778Z,0.34
2023-02-18T12:46:20.904Z,0.34
2023-02-18T12:47:21.045Z,0.34
2023-02-18T12:48:21.173Z,0.34
2023-02-18T12:49:21.252Z,0.34
2023-02-18T12:50:21.453Z,0.34
2023-02-18T12:51:21.581Z,0.43
2023-02-18T12:52:21.720Z,0.71
2023-02-18T12:53:21.859Z,0.65
2023-02-18T12:54:22.003Z,0.90
2023-02-18T12:55:22.063Z,0.94
2023-02-18T12:56:22.272Z,0.56
2023-02-18T12:57:22.423Z,0.47
2023-02-18T12:58:22.555Z,0.45
2023-02-18T12:59:22.600Z,0.73
2023-02-18T13:00:22.808Z,2.06
2023-02-18T13:01:23.001Z,2.11
2023-02-18T13:02:23.156Z,1.64
2023-02-18T13:03:23.345Z,1.73
2023-02-18T13:04:23.429Z,1.82
2023-02-18T13:05:23.559Z,0.80
2023-02-18T13:06:23.621Z,0.59
2023-02-18T13:07:23.836Z,0.35
2023-02-18T13:08:23.955Z,0.35
2023-02-18T13:09:24.084Z,0.37
2023-02-18T13:10:24.219Z,0.57
2023-02-18T13:11:24.366Z,1.02
2023-02-18T13:12:24.514Z,1.11
2023-02-18T13:13:24.681Z,1.28
2023-02-18T13:14:24.822Z,2.15
2023-02-18T13:15:24.998Z,3.28
2023-02-18T13:16:25.177Z,2.63
2023-02-18T13:17:25.271Z,1.70
2023-02-18T13:18:25.322Z,1.35
2023-02-18T13:19:25.541Z,1.50
2023-02-18T13:20:25.709Z,0.95
2023-02-18T13:21:25.778Z,1.29
2023-02-18T13:22:25.975Z,1.43
2023-02-18T13:23:26.048Z,0.80
2023-02-18T13:24:26.251Z,0.76
2023-02-18T13:25:26.396Z,0.77
2023-02-18T13:26:26.565Z,0.95
2023-02-18T13:27:26.683Z,0.90
2023-02-18T13:28:26.735Z,0.63
2023-02-18T13:29:26.958Z,0.71
2023-02-18T13:30:27.123Z,0.64
2023-02-18T13:31:27.217Z,1.54
2023-02-18T13:32:27.393Z,2.12
2023-02-18T13:33:27.570Z,1.94
2023-02-18T13:35:27.850Z,1.00
2023-02-18T13:36:28.015Z,1.21
2023-02-18T13:37:28.152Z,1.62
2023-02-18T13:38:28.315Z,1.63
2023-02-18T13:39:28.453Z,1.82
2023-02-18T13:40:28.624Z,1.32
2023-02-18T13:41:28.767Z,1.23
2023-02-18T13:42:28.912Z,1.39
2023-02-18T13:43:29.070Z,1.58
2023-02-18T13:44:29.131Z,1.93
2023-02-18T13:45:29.348Z,1.29
2023-02-18T13:46:29.396Z,0.75
2023-02-18T13:47:29.599Z,0.62
2023-02-18T13:48:29.775Z,0.45
2023-02-18T13:49:29.917Z,0.73
2023-02-18T13:50:29.976Z,0.74
2023-02-18T13:51:30.358Z,0.50
2023-02-18T13:52:30.277Z,0.46
2023-02-18T13:53:30.447Z,0.55
2023-02-18T13:54:30.608Z,0.50
2023-02-18T13:55:30.775Z,0.51
2023-02-18T13:56:31.023Z,0.71
2023-02-18T13:57:31.164Z,1.37
2023-02-18T13:58:31.230Z,0.85
2023-02-18T13:59:31.343Z,0.76
2023-02-18T14:00:31.495Z,0.71
2023-02-18T14:01:31.679Z,1.12
2023-02-18T14:02:32.145Z,1.29
2023-02-18T14:03:31.830Z,0.77
2023-02-18T14:04:31.782Z,0.59
2023-02-18T14:05:31.714Z,0.72
2023-02-18T14:06:31.659Z,0.78
2023-02-18T14:07:31.635Z,1.50
2023-02-18T14:08:31.578Z,2.73
2023-02-18T14:09:31.562Z,2.85
2023-02-18T14:10:31.558Z,4.44
2023-02-18T14:11:31.526Z,6.28
2023-02-18T14:12:31.488Z,2.52
2023-02-18T14:13:31.428Z,2.15
2023-02-18T14:14:31.373Z,2.39
2023-02-18T14:15:31.360Z,0.97
2023-02-18T14:16:31.285Z,1.13
2023-02-18T14:17:31.207Z,1.71
2023-02-18T14:18:31.133Z,0.98
2023-02-18T14:19:31.049Z,0.77
2023-02-18T14:20:30.977Z,0.67
2023-02-18T14:21:30.908Z,0.94
2023-02-18T14:22:30.841Z,0.68
2023-02-18T14:23:30.788Z,1.29
2023-02-18T14:24:30.745Z,0.95
2023-02-18T14:25:30.721Z,0.56
2023-02-18T14:26:30.714Z,0.45
2023-02-18T14:27:30.688Z,0.56
2023-02-18T14:28:30.663Z,0.61
2023-02-18T14:29:30.624Z,0.52
2023-02-18T14:30:30.614Z,0.67
2023-02-18T14:31:31.085Z,1.13
2023-02-18T14:32:30.381Z,0.67
2023-02-18T14:33:30.332Z,0.64
2023-02-18T14:34:30.269Z,0.74
2023-02-18T14:35:30.185Z,0.85
2023-02-18T14:36:30.094Z,1.51
2023-02-18T14:37:30.048Z,1.69
2023-02-18T14:38:29.943Z,1.69
2023-02-18T14:39:29.878Z,1.09
2023-02-18T14:40:29.819Z,0.97
2023-02-18T14:41:29.741Z,1.13
2023-02-18T14:42:29.648Z,1.18
2023-02-18T14:43:29.590Z,1.38
2023-02-18T14:44:29.568Z,1.57
2023-02-18T14:45:29.430Z,1.60
2023-02-18T14:46:29.379Z,2.11
2023-02-18T14:47:29.291Z,1.81
2023-02-18T14:48:29.252Z,1.78
2023-02-18T14:49:29.175Z,1.87
2023-02-18T14:50:29.078Z,2.61
2023-02-18T14:51:28.998Z,1.95
2023-02-18T14:52:28.913Z,1.33
2023-02-18T14:53:28.841Z,1.00
2023-02-18T14:54:28.743Z,1.29
2023-02-18T14:55:28.703Z,1.89
2023-02-18T14:56:28.648Z,1.88
2023-02-18T14:57:28.592Z,1.41
2023-02-18T14:58:28.650Z,1.84
2023-02-18T14:59:28.779Z,1.81
2023-02-18T15:00:28.936Z,1.49
2023-02-18T15:01:29.132Z,1.40
2023-02-18T15:02:29.254Z,1.80
2023-02-18T15:03:29.473Z,2.25
2023-02-18T15:04:29.618Z,2.84
2023-02-18T15:05:29.813Z,3.84
2023-02-18T15:06:29.984Z,4.99
2023-02-18T15:07:30.169Z,5.30
2023-02-18T15:08:30.332Z,7.24
2023-02-18T15:09:30.650Z,3.80
2023-02-18T15:10:30.697Z,3.05
2023-02-18T15:11:30.846Z,4.38
2023-02-18T15:12:30.989Z,5.97
2023-02-18T15:13:31.163Z,3.92
2023-02-18T15:14:31.339Z,3.56
2023-02-18T15:15:31.501Z,4.90
2023-02-18T15:16:31.733Z,8.36
2023-02-18T15:17:31.833Z,11.56
2023-02-18T15:18:32.058Z,13.70
2023-02-18T15:19:32.223Z,16.39
2023-02-18T15:20:32.385Z,13.77
2023-02-18T15:21:32.557Z,9.43
2023-02-18T15:22:32.727Z,8.81
2023-02-18T15:24:32.791Z,12.57
2023-02-18T15:25:32.703Z,12.57
2023-02-18T15:26:32.632Z,16.51
2023-02-18T15:27:32.519Z,18.73
2023-02-18T15:28:32.444Z,21.88
2023-02-18T15:29:32.381Z,26.11
2023-02-18T15:30:32.357Z,21.12
2023-02-18T15:31:32.286Z,21.79
2023-02-18T15:32:32.217Z,26.00
2023-02-18T15:33:32.085Z,18.91
2023-02-18T15:34:32.040Z,13.77
2023-02-18T15:35:31.978Z,18.83
2023-02-18T15:36:31.911Z,18.87
2023-02-18T15:37:31.823Z,19.71
2023-02-18T15:38:31.736Z,22.28
2023-02-18T15:39:31.689Z,11.23
2023-02-18T15:40:31.627Z,13.24
2023-02-18T15:41:31.578Z,19.17
2023-02-18T15:42:31.505Z,34.81
2023-02-18T15:43:31.464Z,46.40
2023-02-18T15:44:31.417Z,24.76
2023-02-18T15:45:31.378Z,26.45
2023-02-18T15:46:31.396Z,25.35
2023-02-18T15:47:31.278Z,29.34
2023-02-18T15:48:33.272Z,24.63
2023-02-18T15:49:31.155Z,30.15
2023-02-18T15:50:31.095Z,40.27
2023-02-18T15:51:31.039Z,48.37
2023-02-18T15:52:30.990Z,57.69
2023-02-18T15:53:30.929Z,54.64
2023-02-18T15:54:30.892Z,57.10
2023-02-18T15:55:30.848Z,52.15
2023-02-18T15:56:30.837Z,42.75
2023-02-18T15:57:30.831Z,66.87
2023-02-18T15:58:30.797Z,108.52
2023-02-18T15:59:31.357Z,82.51
2023-02-18T16:00:30.861Z,45.04
2023-02-18T16:01:30.820Z,38.27
2023-02-18T16:02:30.743Z,32.10
2023-02-18T16:03:30.691Z,44.25
2023-02-18T16:04:30.628Z,49.55
2023-02-18T16:05:30.638Z,53.03
2023-02-18T16:06:30.621Z,63.95
2023-02-18T16:07:30.568Z,54.24
2023-02-18T16:08:30.508Z,54.04
2023-02-18T16:09:30.453Z,54.67
2023-02-18T16:10:30.396Z,129.22
2023-02-18T16:11:30.364Z,79.39
2023-02-18T16:12:30.285Z,47.48
2023-02-18T16:13:30.247Z,43.29
2023-02-18T16:14:30.182Z,55.26
2023-02-18T16:15:30.153Z,111.11
2023-02-18T16:16:30.147Z,148.03
2023-02-18T16:17:30.124Z,128.43
2023-02-18T16:18:30.156Z,132.72
2023-02-18T16:19:30.115Z,134.92
2023-02-18T16:20:30.098Z,157.56
2023-02-18T16:21:30.090Z,196.14
2023-02-18T16:22:30.051Z,318.43
2023-02-18T16:23:30.002Z,434.67
2023-02-18T16:24:29.980Z,353.33
2023-02-18T16:25:29.907Z,407.66
2023-02-18T16:26:29.871Z,399.15
2023-02-18T16:27:29.811Z,184.84
2023-02-18T16:28:29.804Z,135.98
2023-02-18T16:29:29.746Z,98.88
2023-02-18T16:30:29.800Z,98.21
2023-02-18T16:31:29.822Z,110.41
2023-02-18T16:32:29.715Z,152.83
2023-02-18T16:33:29.720Z,227.22
2023-02-18T16:34:29.694Z,428.42
2023-02-18T16:35:32.805Z,184.32
2023-02-18T16:36:30.608Z,150.12
2023-02-18T16:37:29.559Z,166.72
2023-02-18T16:38:29.505Z,185.98
2023-02-18T16:39:29.535Z,229.57
2023-02-18T16:40:29.745Z,258.52
2023-02-18T16:41:29.926Z,242.36
2023-02-18T16:42:30.095Z,212.76
2023-02-18T16:43:30.160Z,259.88
2023-02-18T16:44:30.397Z,278.66
2023-02-18T16:45:30.559Z,260.23
2023-02-18T16:46:30.674Z,151.27
2023-02-18T16:47:30.812Z,84.22
2023-02-18T16:48:30.939Z,74.36
2023-02-18T16:49:31.073Z,71.73
2023-02-18T16:50:31.247Z,72.97
2023-02-18T16:51:31.467Z,85.66
2023-02-18T16:52:31.642Z,84.87
2023-02-18T16:53:31.846Z,87.73
2023-02-18T16:54:32.047Z,78.94
2023-02-18T16:55:32.246Z,62.72
2023-02-18T16:56:32.434Z,84.05
2023-02-18T16:57:32.605Z,121.96
2023-02-18T16:58:32.804Z,118.19
2023-02-18T16:59:32.977Z,76.08
2023-02-18T17:00:33.155Z,63.72
2023-02-18T17:01:33.328Z,87.40
2023-02-18T17:02:33.489Z,74.72
2023-02-18T17:03:33.671Z,65.32
2023-02-18T17:04:33.871Z,59.54
2023-02-18T17:05:33.984Z,68.34
2023-02-18T17:06:34.173Z,79.27
2023-02-18T17:07:34.352Z,104.64
2023-02-18T17:08:34.495Z,143.02
2023-02-18T17:09:34.657Z,199.53
2023-02-18T17:10:34.815Z,218.77
2023-02-18T17:11:34.967Z,345.96
2023-02-18T17:12:35.104Z,272.86
2023-02-18T17:13:35.260Z,442.36
2023-02-18T17:14:35.430Z,781.79
2023-02-18T17:15:35.606Z,760.19
2023-02-18T17:16:35.801Z,575.13
2023-02-18T17:17:35.965Z,397.37
2023-02-18T17:18:36.170Z,380.29
2023-02-18T17:19:36.358Z,510.70
2023-02-18T17:27:37.932Z,414.56
2023-02-18T17:28:38.129Z,233.04
2023-02-18T17:29:38.343Z,151.77
2023-02-18T17:30:38.525Z,109.88
2023-02-18T17:31:38.813Z,132.36
2023-02-18T17:32:38.892Z,164.68
2023-02-18T17:33:39.051Z,226.56
2023-02-18T17:34:39.225Z,300.64
2023-02-18T17:35:39.375Z,258.85
2023-02-18T17:36:39.539Z,197.75
2023-02-18T17:37:39.697Z,119.12
2023-02-18T17:38:39.863Z,87.67
2023-02-18T17:39:40.025Z,55.81
2023-02-18T17:40:40.185Z,64.59
2023-02-18T17:41:40.387Z,138.56
2023-02-18T17:42:40.588Z,440.20
2023-02-18T17:43:40.783Z,910.93
2023-02-18T17:44:40.979Z,1000.00
2023-02-18T18:19:47.906Z,67.81
2023-02-18T18:20:48.055Z,53.63
2023-02-18T18:37:51.293Z,390.48
2023-02-18T18:38:51.510Z,223.18
2023-02-18T18:39:51.774Z,111.28
2023-02-18T18:40:51.938Z,75.97
2023-02-18T18:41:52.123Z,66.67
2023-02-18T18:42:52.280Z,63.45
2023-02-18T18:43:52.458Z,64.79
2023-02-18T18:44:52.687Z,56.23
2023-02-18T18:45:52.922Z,36.92
2023-02-18T18:46:53.072Z,41.97
2023-02-18T18:47:53.332Z,43.43
2023-02-18T18:48:53.548Z,58.37
2023-02-18T18:49:53.752Z,61.24
2023-02-18T18:50:53.983Z,63.10
2023-02-18T18:51:56.785Z,99.54
2023-02-18T18:52:54.129Z,139.32
2023-02-18T18:53:54.122Z,115.55
2023-02-18T18:54:54.117Z,84.21
2023-02-18T18:55:54.118Z,61.60
2023-02-18T18:56:54.120Z,65.34
2023-02-18T18:57:54.095Z,66.42
2023-02-18T18:58:54.105Z,66.50
2023-02-18T18:59:54.087Z,61.11
2023-02-18T19:00:54.086Z,60.17
2023-02-18T19:01:54.091Z,63.12
2023-02-18T19:02:54.073Z,56.53
2023-02-18T19:03:54.070Z,59.11
2023-02-18T19:04:54.076Z,48.78
2023-02-18T19:05:54.065Z,44.12
2023-02-18T19:06:54.075Z,29.92
2023-02-18T19:07:54.071Z,31.33
2023-02-18T19:08:54.042Z,48.45
2023-02-18T19:09:54.037Z,60.08
2023-02-18T19:10:54.051Z,91.41
2023-02-18T19:11:54.025Z,90.64
2023-02-18T19:12:54.036Z,93.66
2023-02-18T19:13:54.034Z,74.51
2023-02-18T19:14:54.046Z,43.91
2023-02-18T19:15:54.116Z,29.75
2023-02-18T19:16:54.048Z,15.32
2023-02-18T19:17:54.057Z,11.01
2023-02-18T19:18:54.035Z,12.09
2023-02-18T19:19:54.033Z,10.47
2023-02-18T19:20:54.146Z,19.58
2023-02-18T19:21:54.054Z,20.52
2023-02-18T19:22:54.053Z,20.50
2023-02-18T19:23:54.071Z,20.57
2023-02-18T19:24:54.079Z,18.05
2023-02-18T19:25:54.109Z,14.51
2023-02-18T19:26:54.055Z,13.84
2023-02-18T19:27:54.040Z,25.82
2023-02-18T19:28:54.042Z,49.45
2023-02-18T19:29:54.055Z,90.47
2023-02-18T19:30:54.116Z,84.05
2023-02-18T19:31:54.116Z,46.70
2023-02-18T19:32:54.137Z,40.01
2023-02-18T19:33:54.181Z,34.34
2023-02-18T19:34:54.231Z,27.78
2023-02-18T19:55:57.812Z,15.34
2023-02-18T19:56:58.071Z,17.23
2023-02-18T19:57:58.326Z,17.69
2023-02-18T19:58:58.548Z,28.47
2023-02-18T19:59:58.751Z,29.90
2023-02-18T20:00:58.955Z,21.83
2023-02-18T20:01:59.220Z,19.28
2023-02-18T20:02:59.435Z,28.23
2023-02-18T20:03:59.561Z,29.01
2023-02-18T20:04:59.799Z,29.67
2023-02-18T20:06:59.990Z,39.19
2023-02-18T20:07:59.996Z,24.58
2023-02-18T20:09:00.025Z,19.36
2023-02-18T20:10:00.055Z,15.89
2023-02-18T20:11:00.114Z,12.85
2023-02-18T20:12:00.187Z,10.55
2023-02-18T20:13:00.194Z,10.14
2023-02-18T20:14:00.243Z,9.10
2023-02-18T20:15:00.298Z,7.45
2023-02-18T20:16:00.380Z,7.40
2023-02-18T20:17:00.402Z,7.61
2023-02-18T20:18:00.385Z,7.55
2023-02-18T20:19:00.431Z,6.41
2023-02-18T20:20:00.441Z,5.93
2023-02-18T20:21:00.494Z,14.04
2023-02-18T20:22:00.553Z,53.01
2023-02-18T20:23:00.576Z,138.11
2023-02-18T20:24:00.605Z,146.18
2023-02-18T20:25:00.649Z,79.49
2023-02-18T20:26:00.736Z,55.72
2023-02-18T20:27:02.679Z,37.93
2023-02-18T20:28:01.704Z,25.88
2023-02-18T20:30:01.222Z,58.58
2023-02-18T20:40:01.960Z,42.31
2023-02-18T20:43:02.216Z,83.18
2023-02-18T21:27:07.827Z,20.42
2023-02-18T21:28:08.059Z,16.88
2023-02-18T21:29:08.285Z,18.40
2023-02-18T21:30:08.605Z,23.64
2023-02-18T21:31:09.286Z,59.23
2023-02-18T22:20:17.899Z,27.72
2023-02-18T22:21:20.754Z,19.43
2023-02-18T22:22:18.183Z,13.24
2023-02-18T22:23:18.179Z,12.79
2023-02-18T22:24:18.204Z,11.87
2023-02-18T22:25:18.230Z,8.71
2023-02-18T22:26:18.255Z,6.88
2023-02-18T22:27:18.289Z,5.78
2023-02-18T22:28:18.328Z,4.79
2023-02-18T22:29:18.366Z,3.73
2023-02-18T22:30:18.419Z,3.57
2023-02-18T22:31:18.485Z,4.28
2023-02-18T22:32:18.553Z,6.68
2023-02-18T22:33:18.512Z,9.91
2023-02-18T22:34:18.540Z,13.85
2023-02-18T22:35:18.577Z,14.46
2023-02-18T22:36:18.610Z,16.30
2023-02-18T22:37:18.655Z,19.72
2023-02-18T22:38:18.686Z,20.81